createdAt,value
2022-08-11T00:00:48.939Z,60795.46
2022-08-11T00:01:51.608Z,60839.64
2022-08-11T00:02:54.553Z,60843.66
2022-08-11T00:03:57.468Z,60881.81
2022-08-11T00:05:00.337Z,60855.71
2022-08-11T00:06:02.896Z,60850.69
2022-08-11T00:07:05.679Z,60825.59
2022-08-11T00:08:08.460Z,60835.63
2022-08-11T00:09:11.019Z,60839.64
2022-08-11T00:10:13.688Z,60873.78
2022-08-11T00:11:16.353Z,60833.62
2022-08-11T00:12:19.429Z,60867.76
2022-08-11T00:13:22.208Z,60895.87
2022-08-11T00:14:24.890Z,60941.05
2022-08-11T00:15:29.180Z,61005.31
2022-08-11T00:16:31.746Z,60945.07
2022-08-11T00:17:34.634Z,60933.02
2022-08-11T00:18:37.197Z,60964.14
2022-08-11T00:20:15.436Z,60954.11
2022-08-11T00:20:43.978Z,60978.20
2022-08-11T00:22:04.650Z,61001.29
2022-08-11T00:22:50.936Z,60980.21
2022-08-11T00:23:53.718Z,61022.38
2022-08-11T00:25:01.583Z,61032.42
2022-08-11T00:26:00.706Z,60994.27
2022-08-11T00:27:03.358Z,60955.11
2022-08-11T00:28:06.137Z,60971.17
2022-08-11T00:29:08.721Z,60932.02
2022-08-11T00:30:11.281Z,60981.21
2022-08-11T00:31:14.363Z,61019.37
2022-08-11T00:32:17.132Z,60981.21
2022-08-11T00:33:19.997Z,61025.39
2022-08-11T00:34:24.313Z,61029.41
2022-08-11T00:35:54.810Z,61066.56
2022-08-11T00:36:31.342Z,61081.62
2022-08-11T00:37:34.071Z,61071.58
2022-08-11T00:38:36.732Z,61066.56
2022-08-11T00:39:39.655Z,61063.55
2022-08-11T00:40:42.268Z,61060.54
2022-08-11T00:41:44.888Z,61076.60
2022-08-11T00:42:47.412Z,60997.28
2022-08-11T00:43:50.390Z,60975.19
2022-08-11T00:44:53.264Z,60972.18
2022-08-11T00:45:56.141Z,60989.25
2022-08-11T00:47:00.419Z,61000.29
2022-08-11T00:48:03.228Z,61036.44
2022-08-11T00:49:05.896Z,61036.44
2022-08-11T00:50:08.558Z,61017.36
2022-08-11T00:51:11.228Z,61000.29
2022-08-11T00:52:13.889Z,60991.25
2022-08-11T00:53:16.680Z,61006.32
2022-08-11T00:54:20.977Z,61000.29
2022-08-11T00:55:23.646Z,61139.86
2022-08-11T00:56:26.217Z,61263.36
2022-08-11T00:57:37.135Z,61211.15
2022-08-11T00:58:33.092Z,61179.02
2022-08-11T00:59:37.194Z,61169.98
2022-08-11T01:00:39.972Z,61212.15
2022-08-11T01:01:42.635Z,61239.27
2022-08-11T01:02:45.510Z,61355.75
2022-08-11T01:03:48.180Z,61416.00
2022-08-11T01:04:55.563Z,61454.15
2022-08-11T01:05:55.258Z,61444.11
2022-08-11T01:06:58.236Z,61380.85
2022-08-11T01:08:03.507Z,61410.98
2022-08-11T01:09:05.523Z,61379.84
2022-08-11T01:10:08.498Z,61369.80
2022-08-11T01:11:11.470Z,61402.94
2022-08-11T01:12:14.263Z,61530.47
2022-08-11T01:13:17.125Z,61507.37
2022-08-11T01:14:34.091Z,61479.26
2022-08-11T01:15:24.410Z,61482.27
2022-08-11T01:16:27.310Z,61446.12
2022-08-11T01:17:30.171Z,61465.20
2022-08-11T01:18:32.621Z,61467.21
2022-08-11T01:20:47.009Z,61429.05
2022-08-11T01:20:47.035Z,61430.05
2022-08-11T01:21:43.396Z,61365.79
2022-08-11T01:22:45.975Z,61390.89
2022-08-11T01:23:48.627Z,61266.37
2022-08-11T01:24:51.416Z,61323.61
2022-08-11T01:25:56.999Z,61228.22
2022-08-11T01:26:58.794Z,61197.09
2022-08-11T01:28:01.667Z,61142.87
2022-08-11T01:29:04.537Z,61150.90
2022-08-11T01:30:07.312Z,61148.89
2022-08-11T01:31:10.187Z,61149.90
2022-08-11T01:32:13.060Z,61106.72
2022-08-11T01:33:16.039Z,61087.64
2022-08-11T01:34:19.024Z,61091.66
2022-08-11T01:35:21.889Z,61078.61
2022-08-11T01:36:24.780Z,61060.54
2022-08-11T01:37:27.542Z,60984.23
2022-08-11T01:38:30.207Z,61006.32
2022-08-11T01:39:33.241Z,61010.33
2022-08-11T01:40:35.862Z,60977.20
2022-08-11T01:41:38.826Z,60966.15
2022-08-11T01:42:42.944Z,60933.02
2022-08-11T01:43:45.512Z,60912.94
2022-08-11T01:44:48.180Z,60897.88
2022-08-11T01:45:50.950Z,60886.84
2022-08-11T01:46:53.831Z,60807.52
2022-08-11T01:47:56.494Z,60826.59
2022-08-11T01:48:59.066Z,60791.45
2022-08-11T01:50:09.427Z,60783.42
2022-08-11T01:51:05.827Z,60746.27
2022-08-11T01:52:08.498Z,60726.19
2022-08-11T01:53:11.168Z,60693.06
2022-08-11T01:54:13.947Z,60643.86
2022-08-11T01:55:16.527Z,60653.90
2022-08-11T01:56:19.087Z,60640.85
2022-08-11T01:57:21.756Z,60632.82
2022-08-11T01:58:43.209Z,60632.82
2022-08-11T01:59:28.730Z,60586.64
2022-08-11T02:00:31.448Z,60550.50
2022-08-11T02:01:34.173Z,60522.39
2022-08-11T02:02:37.054Z,60519.37
2022-08-11T02:03:39.818Z,60506.32
2022-08-11T02:04:42.382Z,60494.27
2022-08-11T02:05:45.047Z,60512.35
2022-08-11T02:06:47.620Z,60491.26
2022-08-11T02:07:50.192Z,60493.27
2022-08-11T02:08:52.754Z,60502.31
2022-08-11T02:09:56.349Z,60452.11
2022-08-11T02:10:59.121Z,60436.05
2022-08-11T02:12:02.813Z,60403.92
2022-08-11T02:13:05.389Z,60367.78
2022-08-11T02:14:09.481Z,60352.72
2022-08-11T02:15:12.046Z,60311.56
2022-08-11T02:16:14.721Z,60288.48
2022-08-11T02:17:17.813Z,60313.57
2022-08-11T02:18:20.476Z,60285.46
2022-08-11T02:19:25.005Z,60266.39
2022-08-11T02:20:27.750Z,60242.30
2022-08-11T02:21:30.737Z,60234.27
2022-08-11T02:22:33.386Z,60169.02
2022-08-11T02:24:05.070Z,60175.04
2022-08-11T02:24:40.559Z,60090.71
2022-08-11T02:25:43.333Z,60072.64
2022-08-11T02:26:46.624Z,60072.64
2022-08-11T02:27:49.492Z,60106.78
2022-08-11T02:28:52.367Z,60049.56
2022-08-11T02:29:55.150Z,60012.41
2022-08-11T02:30:58.224Z,60003.38
2022-08-11T02:32:15.587Z,59983.30
2022-08-11T02:33:05.715Z,59963.23
2022-08-11T02:34:08.689Z,59970.25
2022-08-11T02:35:11.562Z,59977.28
2022-08-11T02:36:14.637Z,59942.15
2022-08-11T02:37:23.686Z,59976.28
2022-08-11T02:38:21.823Z,59978.29
2022-08-11T02:39:24.991Z,60030.48
2022-08-11T02:40:27.775Z,60038.52
2022-08-11T02:41:30.550Z,60054.57
2022-08-11T02:42:36.176Z,60056.58
2022-08-11T02:43:37.835Z,60063.61
2022-08-11T02:44:42.240Z,60083.69
2022-08-11T02:45:44.914Z,60024.46
2022-08-11T02:46:47.893Z,60096.74
2022-08-11T02:47:50.876Z,60046.55
2022-08-11T02:48:53.538Z,60050.56
2022-08-11T02:50:02.499Z,60037.51
2022-08-11T02:51:01.131Z,60013.42
2022-08-11T02:52:04.231Z,59983.30
2022-08-11T02:53:07.084Z,59968.25
2022-08-11T02:54:09.856Z,59978.29
2022-08-11T02:55:12.645Z,59965.24
2022-08-11T02:56:16.939Z,59927.09
2022-08-11T02:57:19.813Z,59842.77
2022-08-11T02:58:27.210Z,59837.76
2022-08-11T02:59:26.889Z,59821.70
2022-08-11T03:00:29.667Z,59785.56
2022-08-11T03:01:32.567Z,59819.69
2022-08-11T03:02:35.415Z,59828.72
2022-08-11T03:03:38.283Z,59791.58
2022-08-11T03:04:40.958Z,59779.54
2022-08-11T03:05:43.627Z,59783.55
2022-08-11T03:06:46.398Z,59769.50
2022-08-11T03:07:49.172Z,59767.49
2022-08-11T03:08:52.520Z,59740.39
2022-08-11T03:09:55.533Z,59779.54
2022-08-11T03:10:58.421Z,59780.54
2022-08-11T03:12:01.523Z,59781.55
2022-08-11T03:13:06.002Z,59787.57
2022-08-11T03:14:08.973Z,59787.57
2022-08-11T03:15:11.857Z,59769.50
2022-08-11T03:16:14.931Z,59789.57
2022-08-11T03:17:17.928Z,59769.50
2022-08-11T03:18:20.890Z,59732.36
2022-08-11T03:19:24.276Z,59722.32
2022-08-11T03:20:38.070Z,59676.15
2022-08-11T03:22:01.563Z,59616.93
2022-08-11T03:22:36.116Z,59598.87
2022-08-11T03:23:39.158Z,59587.82
2022-08-11T03:24:42.131Z,59513.55
2022-08-11T03:25:45.001Z,59498.50
2022-08-11T03:26:47.682Z,59458.35
2022-08-11T03:27:50.757Z,59444.30
2022-08-11T03:28:53.834Z,59444.30
2022-08-11T03:29:57.137Z,59382.07
2022-08-11T03:31:00.107Z,59306.80
2022-08-11T03:32:03.176Z,59334.90
2022-08-11T03:33:06.562Z,59312.82
2022-08-11T03:34:09.843Z,59263.64
2022-08-11T03:35:16.885Z,59216.47
2022-08-11T03:36:17.537Z,59220.48
2022-08-11T03:37:20.313Z,59167.30
2022-08-11T03:38:23.801Z,59177.33
2022-08-11T03:39:28.382Z,59119.12
2022-08-11T03:40:31.191Z,59106.08
2022-08-11T03:42:02.563Z,59065.93
2022-08-11T03:42:38.485Z,59022.78
2022-08-11T03:43:50.109Z,59003.71
2022-08-11T03:44:45.764Z,58932.46
2022-08-11T03:45:48.837Z,58937.48
2022-08-11T03:46:51.914Z,58893.32
2022-08-11T03:47:55.513Z,58865.22
2022-08-11T03:48:58.903Z,58805.01
2022-08-11T03:50:02.177Z,58820.07
2022-08-11T03:51:05.256Z,58823.07
2022-08-11T03:52:08.333Z,58791.96
2022-08-11T03:53:11.413Z,58785.95
2022-08-11T03:54:14.288Z,58731.76
2022-08-11T03:55:17.375Z,58707.67
2022-08-11T03:56:20.657Z,58709.68
2022-08-11T03:57:23.837Z,58702.66
2022-08-11T03:58:26.814Z,58720.72
2022-08-11T03:59:29.486Z,58702.66
2022-08-11T04:00:32.357Z,58699.64
2022-08-11T04:01:35.418Z,58707.67
2022-08-11T04:02:38.322Z,58705.66
2022-08-11T04:03:41.390Z,58714.70
2022-08-11T04:04:45.174Z,58703.66
2022-08-11T04:05:48.678Z,58703.66
2022-08-11T04:06:51.450Z,58679.57
2022-08-11T04:07:54.334Z,58737.78
2022-08-11T04:08:57.115Z,58736.77
2022-08-11T04:09:59.972Z,58724.73
2022-08-11T04:11:02.846Z,58745.80
2022-08-11T04:12:05.829Z,58791.96
2022-08-11T04:13:08.811Z,58802.00
2022-08-11T04:14:11.776Z,58804.01
2022-08-11T04:15:14.756Z,58738.78
2022-08-11T04:16:17.733Z,58726.74
2022-08-11T04:17:22.921Z,58695.63
2022-08-11T04:18:25.530Z,58749.82
2022-08-11T04:19:28.521Z,58753.83
2022-08-11T04:20:31.278Z,58745.80
2022-08-11T04:21:34.364Z,58717.71
2022-08-11T04:22:37.679Z,58773.90
2022-08-11T04:24:34.642Z,58789.96
2022-08-11T04:26:16.058Z,58802.00
2022-08-11T04:27:08.285Z,58835.12
2022-08-11T04:28:28.653Z,58835.12
2022-08-11T04:29:17.417Z,58851.18
2022-08-11T04:30:20.492Z,58859.20
2022-08-11T04:31:50.424Z,58844.15
2022-08-11T04:32:27.985Z,58849.17
2022-08-11T04:33:34.193Z,58866.23
2022-08-11T04:34:35.576Z,58822.07
2022-08-11T04:35:38.456Z,58866.23
2022-08-11T04:36:41.323Z,58850.17
2022-08-11T04:37:44.203Z,58810.03
2022-08-11T04:38:48.610Z,58822.07
2022-08-11T04:39:51.364Z,58877.27
2022-08-11T04:40:54.255Z,58886.30
2022-08-11T04:41:57.242Z,58856.19
2022-08-11T04:43:00.208Z,58855.19
2022-08-11T04:44:06.183Z,58864.22
2022-08-11T04:45:08.111Z,58868.23
2022-08-11T04:46:11.091Z,58905.36
2022-08-11T04:47:13.960Z,58877.27
2022-08-11T04:48:16.843Z,58875.26
2022-08-11T04:49:24.926Z,58861.21
2022-08-11T04:50:24.735Z,58889.31
2022-08-11T04:51:27.508Z,58903.36
2022-08-11T04:52:36.089Z,58930.45
2022-08-11T04:53:34.909Z,58963.57
2022-08-11T04:54:37.771Z,58954.54
2022-08-11T04:55:40.646Z,58934.46
2022-08-11T04:56:43.415Z,58894.32
2022-08-11T04:57:46.288Z,58914.39
2022-08-11T04:58:48.961Z,58908.37
2022-08-11T04:59:51.635Z,58889.31
2022-08-11T05:00:54.822Z,58915.40
2022-08-11T05:01:59.481Z,58894.32
2022-08-11T05:03:02.404Z,58896.33
2022-08-11T05:04:05.486Z,58867.23
2022-08-11T05:05:08.667Z,58879.27
2022-08-11T05:06:11.562Z,58842.14
2022-08-11T05:07:14.519Z,58848.16
2022-08-11T05:08:21.877Z,58856.19
2022-08-11T05:09:22.006Z,58838.13
2022-08-11T05:10:25.391Z,58883.29
2022-08-11T05:11:28.473Z,58871.24
2022-08-11T05:12:31.448Z,58877.27
2022-08-11T05:13:34.426Z,58905.36
2022-08-11T05:14:37.200Z,58894.32
2022-08-11T05:15:43.147Z,58867.23
2022-08-11T05:16:44.702Z,58867.23
2022-08-11T05:17:47.565Z,58855.19
2022-08-11T05:18:50.346Z,58881.28
2022-08-11T05:19:53.209Z,58832.11
2022-08-11T05:20:57.505Z,58832.11
2022-08-11T05:22:00.605Z,58876.26
2022-08-11T05:23:03.268Z,58850.17
2022-08-11T05:24:06.252Z,58882.28
2022-08-11T05:25:08.926Z,58866.23
2022-08-11T05:26:46.909Z,58888.30
2022-08-11T05:27:15.995Z,58878.27
2022-08-11T05:28:18.774Z,58920.42
2022-08-11T05:29:21.644Z,58904.36
2022-08-11T05:30:24.519Z,58917.41
2022-08-11T05:31:27.600Z,58936.47
2022-08-11T05:32:30.780Z,58975.61
2022-08-11T05:33:33.454Z,58923.43
2022-08-11T05:34:36.325Z,58985.65
2022-08-11T05:36:00.069Z,59000.70
2022-08-11T05:36:43.712Z,58996.69
2022-08-11T05:37:46.377Z,58988.66
2022-08-11T05:38:49.257Z,59025.79
2022-08-11T05:39:52.192Z,59015.75
2022-08-11T05:41:00.191Z,59069.95
2022-08-11T05:41:59.525Z,59047.87
2022-08-11T05:43:02.393Z,59087.01
2022-08-11T05:44:21.144Z,59082.99
2022-08-11T05:45:15.591Z,59103.07
2022-08-11T05:46:13.788Z,59133.17
2022-08-11T05:47:16.658Z,59124.14
2022-08-11T05:48:19.429Z,59168.30
2022-08-11T05:49:22.202Z,59155.25
2022-08-11T05:50:32.793Z,59164.29
2022-08-11T05:51:30.447Z,59173.32
2022-08-11T05:52:33.492Z,59202.42
2022-08-11T05:53:45.764Z,59191.38
2022-08-11T06:02:10.017Z,56862.70
2022-08-11T06:03:12.698Z,59243.57
2022-08-11T06:04:15.348Z,59246.58
2022-08-11T06:05:19.468Z,59275.68
2022-08-11T06:06:22.426Z,59281.71
2022-08-11T06:07:25.199Z,59301.78
2022-08-11T06:08:27.875Z,59286.73
2022-08-11T06:09:30.541Z,59291.74
2022-08-11T06:10:33.286Z,59261.63
2022-08-11T06:11:44.293Z,59281.71
2022-08-11T06:12:40.392Z,59261.63
2022-08-11T06:13:43.071Z,59249.59
2022-08-11T06:14:45.848Z,59239.55
2022-08-11T06:15:48.810Z,59268.66
2022-08-11T06:16:51.480Z,59265.65
2022-08-11T06:17:54.277Z,59261.63
2022-08-11T06:18:57.130Z,59291.74
2022-08-11T06:20:07.187Z,59271.67
2022-08-11T06:21:04.213Z,59284.72
2022-08-11T06:22:07.292Z,59306.80
2022-08-11T06:23:10.061Z,59325.87
2022-08-11T06:24:12.842Z,59305.79
2022-08-11T06:25:15.604Z,59307.80
2022-08-11T06:26:18.481Z,59327.87
2022-08-11T06:27:21.154Z,59321.85
2022-08-11T06:28:24.022Z,59340.92
2022-08-11T06:29:46.882Z,59332.89
2022-08-11T06:30:31.419Z,59373.04
2022-08-11T06:31:34.622Z,59330.89
2022-08-11T06:32:37.569Z,59376.05
2022-08-11T06:33:40.658Z,59416.20
2022-08-11T06:34:43.323Z,59387.09
2022-08-11T06:35:46.297Z,59413.18
2022-08-11T06:36:49.080Z,59442.29
2022-08-11T06:37:53.658Z,59459.35
2022-08-11T06:38:56.572Z,59470.39
2022-08-11T06:40:00.115Z,59471.40
2022-08-11T06:41:03.023Z,59510.54
2022-08-11T06:42:06.307Z,59532.62
2022-08-11T06:43:09.505Z,59547.68
2022-08-11T06:44:12.464Z,59559.72
2022-08-11T06:45:15.651Z,59554.70
2022-08-11T06:46:25.224Z,59544.67
2022-08-11T06:47:23.546Z,59584.82
2022-08-11T06:48:26.529Z,59628.98
2022-08-11T06:49:29.703Z,59610.91
2022-08-11T06:50:32.893Z,59657.08
2022-08-11T06:51:36.174Z,59663.11
2022-08-11T06:52:39.050Z,59655.07
2022-08-11T06:53:42.133Z,59696.23
2022-08-11T06:54:46.845Z,59740.39
2022-08-11T06:55:57.068Z,59743.40
2022-08-11T06:57:12.453Z,59707.27
2022-08-11T06:57:58.972Z,59748.42
2022-08-11T06:59:01.924Z,59761.47
2022-08-11T07:00:05.014Z,59753.44
2022-08-11T07:01:08.340Z,59758.46
2022-08-11T07:02:11.369Z,59797.61
2022-08-11T07:03:14.455Z,59795.60
2022-08-11T07:04:17.323Z,59793.59
2022-08-11T07:05:20.296Z,59789.57
2022-08-11T07:06:23.689Z,59800.62
2022-08-11T07:07:26.749Z,59784.56
2022-08-11T07:08:33.061Z,59797.61
2022-08-11T07:09:34.562Z,59811.66
2022-08-11T07:10:37.339Z,59839.77
2022-08-11T07:11:40.005Z,59849.80
2022-08-11T07:12:42.576Z,59847.79
2022-08-11T07:13:45.965Z,59867.87
2022-08-11T07:14:48.832Z,59854.82
2022-08-11T07:16:10.742Z,59883.93
2022-08-11T07:16:56.732Z,59877.91
2022-08-11T07:17:59.503Z,59908.02
2022-08-11T07:19:02.685Z,59886.94
2022-08-11T07:20:05.877Z,59898.99
2022-08-11T07:22:01.279Z,59911.03
2022-08-11T07:22:13.571Z,59934.12
2022-08-11T07:23:16.741Z,59934.12
2022-08-11T07:24:20.027Z,59986.32
2022-08-11T07:25:24.438Z,60008.40
2022-08-11T07:26:27.329Z,59970.25
2022-08-11T07:27:35.054Z,59988.32
2022-08-11T07:28:35.009Z,59982.30
2022-08-11T07:29:37.781Z,60013.42
2022-08-11T07:30:41.269Z,59994.35
2022-08-11T07:31:43.942Z,59989.33
2022-08-11T07:32:46.916Z,59992.34
2022-08-11T07:34:07.243Z,60022.45
2022-08-11T07:34:54.203Z,60015.43
2022-08-11T07:35:57.294Z,59994.35
2022-08-11T07:37:00.158Z,60022.45
2022-08-11T07:38:04.840Z,59995.35
2022-08-11T07:39:07.189Z,60022.45
2022-08-11T07:40:09.911Z,60034.50
2022-08-11T07:41:12.812Z,60019.44
2022-08-11T07:42:15.757Z,60026.47
2022-08-11T07:43:18.834Z,60022.45
2022-08-11T07:44:21.811Z,60037.51
2022-08-11T07:45:24.999Z,60040.52
2022-08-11T07:46:28.075Z,60077.66
2022-08-11T07:47:31.053Z,60077.66
2022-08-11T07:48:34.033Z,60090.71
2022-08-11T07:49:37.006Z,60074.65
2022-08-11T07:50:39.680Z,60089.71
2022-08-11T07:51:42.653Z,60075.66
2022-08-11T07:52:45.439Z,60067.62
2022-08-11T07:53:58.606Z,60069.63
2022-08-11T07:54:52.698Z,60110.79
2022-08-11T07:55:56.203Z,60117.82
2022-08-11T07:57:09.095Z,60083.69
2022-08-11T07:58:19.484Z,60105.77
2022-08-11T07:59:09.235Z,60112.80
2022-08-11T08:00:13.231Z,60090.71
2022-08-11T08:01:21.935Z,60072.64
2022-08-11T08:02:22.359Z,60054.57
2022-08-11T08:03:25.332Z,60058.59
2022-08-11T08:04:28.209Z,60051.57
2022-08-11T08:05:31.088Z,60020.45
2022-08-11T08:06:36.569Z,60030.48
2022-08-11T08:07:38.267Z,60046.55
2022-08-11T08:08:42.163Z,60038.52
2022-08-11T08:09:45.142Z,60016.43
2022-08-11T08:10:47.913Z,59981.30
2022-08-11T08:11:50.684Z,59994.35
2022-08-11T08:12:53.356Z,59983.30
2022-08-11T08:13:56.127Z,59970.25
2022-08-11T08:14:58.898Z,59976.28
2022-08-11T08:16:03.315Z,59938.13
2022-08-11T08:17:05.985Z,59979.29
2022-08-11T08:18:26.104Z,59961.22
2022-08-11T08:19:12.958Z,59920.07
2022-08-11T08:20:15.625Z,59947.17
2022-08-11T08:21:18.295Z,59961.22
2022-08-11T08:22:38.665Z,59965.24
2022-08-11T08:23:25.793Z,59940.14
2022-08-11T08:24:28.666Z,59940.14
2022-08-11T08:25:31.537Z,59989.33
2022-08-11T08:26:34.516Z,59952.19
2022-08-11T08:27:37.497Z,59958.21
2022-08-11T08:28:40.206Z,59961.22
2022-08-11T08:29:43.145Z,59914.04
2022-08-11T08:30:46.010Z,59940.14
2022-08-11T08:31:48.681Z,59924.08
2022-08-11T08:32:51.451Z,59940.14
2022-08-11T08:33:54.239Z,59939.14
2022-08-11T08:34:57.228Z,59895.97
2022-08-11T08:36:00.086Z,59929.10
2022-08-11T08:37:02.950Z,59912.04
2022-08-11T08:38:07.467Z,59919.06
2022-08-11T08:39:10.198Z,59919.06
2022-08-11T08:40:13.012Z,59936.12
2022-08-11T08:41:16.604Z,59903.00
2022-08-11T08:42:19.577Z,59881.92
2022-08-11T08:43:22.656Z,59894.97
2022-08-11T08:44:41.686Z,59874.89
2022-08-11T08:45:30.049Z,59894.97
2022-08-11T08:46:33.229Z,59860.84
2022-08-11T08:47:37.839Z,59855.82
2022-08-11T08:48:40.717Z,59857.83
2022-08-11T08:49:43.692Z,59894.97
2022-08-11T08:50:48.003Z,59888.95
2022-08-11T08:52:01.309Z,59851.81
2022-08-11T08:52:54.980Z,59823.70
2022-08-11T08:53:58.497Z,59865.86
2022-08-11T08:55:01.547Z,59846.79
2022-08-11T08:56:04.542Z,59861.85
2022-08-11T08:57:07.811Z,59871.88
2022-08-11T08:58:10.680Z,59861.85
2022-08-11T08:59:13.458Z,59865.86
2022-08-11T09:00:19.384Z,59871.88
2022-08-11T09:01:21.144Z,59899.99
2022-08-11T09:02:34.661Z,59859.84
2022-08-11T09:04:06.660Z,59897.98
2022-08-11T09:04:32.962Z,59905.01
2022-08-11T09:05:35.925Z,59885.94
2022-08-11T09:06:38.902Z,59894.97
2022-08-11T09:07:42.228Z,59885.94
2022-08-11T09:08:45.479Z,59884.93
2022-08-11T09:09:48.146Z,59903.00
2022-08-11T09:10:50.915Z,59912.04
2022-08-11T09:11:53.655Z,59946.16
2022-08-11T09:12:56.353Z,59893.97
2022-08-11T09:14:05.151Z,59895.97
2022-08-11T09:15:03.434Z,59938.13
2022-08-11T09:16:06.208Z,59948.17
2022-08-11T09:17:08.876Z,59936.12
2022-08-11T09:18:11.548Z,59949.18
2022-08-11T09:19:14.224Z,59948.17
2022-08-11T09:20:16.991Z,59951.18
2022-08-11T09:21:41.725Z,59951.18
2022-08-11T09:22:24.173Z,59954.20
2022-08-11T09:24:07.971Z,59965.24
2022-08-11T09:24:31.151Z,59970.25
2022-08-11T09:25:34.142Z,60009.41
2022-08-11T09:26:36.693Z,59976.28
2022-08-11T09:27:39.729Z,60060.60
2022-08-11T09:28:43.773Z,60044.54
2022-08-11T09:29:46.445Z,60060.60
2022-08-11T09:30:49.115Z,60082.68
2022-08-11T09:31:51.990Z,60060.60
2022-08-11T09:32:54.778Z,60100.75
2022-08-11T09:33:57.433Z,60047.55
2022-08-11T09:35:00.221Z,60074.65
2022-08-11T09:36:02.871Z,60074.65
2022-08-11T09:37:07.196Z,60044.54
2022-08-11T09:38:09.850Z,60024.46
2022-08-11T09:39:12.646Z,60038.52
2022-08-11T09:40:15.400Z,60017.44
2022-08-11T09:41:17.963Z,60008.40
2022-08-11T09:42:23.249Z,60023.46
2022-08-11T09:43:26.575Z,60012.41
2022-08-11T09:44:29.357Z,60020.45
2022-08-11T09:45:40.141Z,59975.27
2022-08-11T09:46:36.533Z,59938.13
2022-08-11T09:47:39.542Z,59921.07
2022-08-11T09:48:42.491Z,59906.01
2022-08-11T09:49:45.472Z,59866.87
2022-08-11T09:50:48.152Z,59845.79
2022-08-11T09:52:02.230Z,59822.70
2022-08-11T09:53:34.898Z,59773.52
2022-08-11T09:54:03.032Z,59784.56
2022-08-11T09:55:04.244Z,59730.36
2022-08-11T09:56:07.117Z,59756.45
2022-08-11T09:57:09.896Z,59739.39
2022-08-11T09:58:12.761Z,59779.54
2022-08-11T09:59:17.090Z,59792.59
2022-08-11T10:00:19.835Z,59799.61
2022-08-11T10:01:22.686Z,59859.84
2022-08-11T10:02:25.386Z,59881.92
2022-08-11T10:03:28.058Z,59895.97
2022-08-11T10:04:30.726Z,59862.85
2022-08-11T10:05:33.496Z,59896.98
2022-08-11T10:06:36.270Z,59955.20
2022-08-11T10:07:39.244Z,59930.11
2022-08-11T10:08:42.024Z,59967.24
2022-08-11T10:09:44.795Z,59990.33
2022-08-11T10:10:47.470Z,59990.33
2022-08-11T10:11:55.485Z,60016.43
2022-08-11T10:12:54.541Z,59976.28
2022-08-11T10:14:31.462Z,59994.35
2022-08-11T10:15:03.077Z,60009.41
2022-08-11T10:16:15.160Z,60038.52
2022-08-11T10:17:10.861Z,60057.59
2022-08-11T10:18:13.830Z,60040.52
2022-08-11T10:19:16.806Z,59983.30
2022-08-11T10:20:25.303Z,60052.57
2022-08-11T10:21:24.402Z,60009.41
2022-08-11T10:22:27.698Z,60048.55
2022-08-11T10:23:30.862Z,60036.51
2022-08-11T10:24:33.851Z,60047.55
2022-08-11T10:25:36.719Z,59994.35
2022-08-11T10:26:39.490Z,60027.47
2022-08-11T10:28:29.086Z,59991.34
2022-08-11T10:29:11.675Z,60007.40
2022-08-11T10:29:51.963Z,60007.40
2022-08-11T10:30:54.980Z,59977.28
2022-08-11T10:32:02.104Z,60009.41
2022-08-11T10:33:04.011Z,60005.39
2022-08-11T10:34:08.518Z,60018.44
2022-08-11T10:35:13.032Z,59928.10
2022-08-11T10:36:17.037Z,59974.27
2022-08-11T10:37:20.022Z,59933.12
2022-08-11T10:38:23.921Z,59914.04
2022-08-11T10:39:26.899Z,59938.13
2022-08-11T10:40:29.869Z,59884.93
2022-08-11T10:41:32.850Z,59901.00
2022-08-11T10:42:57.226Z,59895.97
2022-08-11T10:44:03.395Z,59894.97
2022-08-11T10:44:45.135Z,59841.77
2022-08-11T10:45:47.822Z,59835.75
2022-08-11T10:46:50.490Z,59863.86
2022-08-11T10:47:53.162Z,59863.86
2022-08-11T10:48:55.830Z,59847.79
2022-08-11T10:49:58.807Z,59844.78
2022-08-11T10:51:01.785Z,59914.04
2022-08-11T10:52:04.457Z,59907.02
2022-08-11T10:53:07.533Z,59924.08
2022-08-11T10:54:12.518Z,59966.24
2022-08-11T10:55:14.919Z,59983.30
2022-08-11T10:56:17.900Z,60014.42
2022-08-11T10:57:20.882Z,59988.32
2022-08-11T10:58:23.749Z,60021.45
2022-08-11T10:59:26.626Z,60044.54
2022-08-11T11:00:29.602Z,60079.67
2022-08-11T11:01:32.686Z,60057.59
2022-08-11T11:02:35.556Z,60070.64
2022-08-11T11:03:38.227Z,60126.85
2022-08-11T11:04:40.899Z,60078.67
2022-08-11T11:06:13.296Z,60104.77
2022-08-11T11:06:47.975Z,60126.85
2022-08-11T11:07:50.756Z,60118.82
2022-08-11T11:08:53.419Z,60148.94
2022-08-11T11:09:56.299Z,60165.00
2022-08-11T11:10:58.966Z,60132.87
2022-08-11T11:12:01.633Z,60141.91
2022-08-11T11:13:04.411Z,60161.99
2022-08-11T11:14:07.279Z,60197.12
2022-08-11T11:15:10.149Z,60172.03
2022-08-11T11:16:14.668Z,60163.99
2022-08-11T11:17:17.543Z,60204.15
2022-08-11T11:18:20.416Z,60227.24
2022-08-11T11:19:24.080Z,60235.27
2022-08-11T11:20:36.357Z,60243.30
2022-08-11T11:21:31.498Z,60313.57
2022-08-11T11:22:34.378Z,60328.63
2022-08-11T11:23:37.354Z,60318.59
2022-08-11T11:24:40.115Z,60314.57
2022-08-11T11:25:43.099Z,60363.77
2022-08-11T11:26:45.771Z,60378.82
2022-08-11T11:27:48.539Z,60369.79
2022-08-11T11:28:51.209Z,60428.02
2022-08-11T11:29:53.878Z,60399.91
2022-08-11T11:30:56.551Z,60385.85
2022-08-11T11:31:59.524Z,60418.98
2022-08-11T11:33:05.062Z,60454.12
2022-08-11T11:34:12.103Z,60441.07
2022-08-11T11:35:12.655Z,60478.21
2022-08-11T11:36:15.532Z,60429.02
2022-08-11T11:37:18.402Z,60455.12
2022-08-11T11:38:21.278Z,60504.32
2022-08-11T11:39:24.114Z,60503.31
2022-08-11T11:40:31.498Z,60492.27
2022-08-11T11:41:31.235Z,60513.35
2022-08-11T11:42:34.171Z,60485.24
2022-08-11T11:43:36.887Z,60501.30
2022-08-11T11:44:39.650Z,60523.39
2022-08-11T11:45:42.430Z,60557.52
2022-08-11T11:46:45.198Z,60536.44
2022-08-11T11:47:47.965Z,60527.41
2022-08-11T11:48:52.276Z,60548.49
2022-08-11T11:49:55.049Z,60514.36
2022-08-11T11:50:58.639Z,60528.41
2022-08-11T11:52:01.423Z,60492.27
2022-08-11T11:53:03.982Z,60531.42
2022-08-11T11:54:06.753Z,60534.43
2022-08-11T11:55:11.096Z,60523.39
2022-08-11T11:56:13.740Z,60561.54
2022-08-11T11:57:16.606Z,60504.32
2022-08-11T11:58:19.278Z,60503.31
2022-08-11T11:59:21.944Z,60537.45
2022-08-11T12:00:24.637Z,60512.35
2022-08-11T12:01:28.925Z,60523.39
2022-08-11T12:02:31.705Z,60512.35
2022-08-11T12:03:34.480Z,60534.43
2022-08-11T12:04:37.239Z,60541.46
2022-08-11T12:05:40.112Z,60524.39
2022-08-11T12:06:42.828Z,60504.32
2022-08-11T12:07:45.668Z,60491.26
2022-08-11T12:08:49.966Z,60482.23
2022-08-11T12:09:52.738Z,60480.22
2022-08-11T12:10:55.408Z,60495.28
2022-08-11T12:11:58.075Z,60520.38
2022-08-11T12:13:00.849Z,60485.24
2022-08-11T12:14:03.628Z,60485.24
2022-08-11T12:15:07.933Z,60508.33
2022-08-11T12:16:35.783Z,60472.19
2022-08-11T12:17:14.908Z,60473.19
2022-08-11T12:18:17.578Z,60502.31
2022-08-11T12:19:20.353Z,60505.32
2022-08-11T12:20:32.097Z,60480.22
2022-08-11T12:21:27.531Z,60502.31
2022-08-11T12:22:30.310Z,60518.37
2022-08-11T12:23:33.189Z,60482.23
2022-08-11T12:24:36.156Z,60515.36
2022-08-11T12:25:39.031Z,60512.35
2022-08-11T12:26:41.818Z,60506.32
2022-08-11T12:27:44.676Z,60513.35
2022-08-11T12:28:47.453Z,60563.55
2022-08-11T12:29:55.047Z,60537.45
2022-08-11T12:30:54.541Z,60484.24